createdAt,value
2018-05-17T00:03:10.595Z,16.00
2018-05-17T00:08:13.281Z,17.50
2018-05-17T00:13:16.717Z,18.90
2018-05-17T00:18:19.413Z,18.95
2018-05-17T00:23:22.059Z,19.20
2018-05-17T00:28:24.632Z,18.55
2018-05-17T00:33:28.230Z,18.00
2018-05-17T00:38:32.488Z,17.17
2018-05-17T00:43:36.909Z,19.17
2018-05-17T00:48:42.605Z,19.60
2018-05-17T00:53:47.643Z,20.45
2018-05-17T00:58:51.180Z,23.67
2018-05-17T01:03:56.056Z,21.37
2018-05-17T01:08:58.825Z,22.37
2018-05-17T01:14:02.666Z,20.83
2018-05-17T01:19:06.264Z,19.55
2018-05-17T01:24:10.522Z,21.17
2018-05-17T01:29:18.370Z,24.90
2018-05-17T01:34:22.764Z,24.20
2018-05-17T01:39:25.550Z,25.40
2018-05-17T01:44:29.291Z,24.42
2018-05-17T01:49:34.245Z,24.42
2018-05-17T01:54:42.466Z,24.12
2018-05-17T01:59:44.971Z,26.55
2018-05-17T02:04:48.890Z,26.70
2018-05-17T02:09:52.446Z,26.83
2018-05-17T02:14:55.761Z,26.00
2018-05-17T02:19:59.703Z,25.97
2018-05-17T02:25:02.216Z,23.80
2018-05-17T02:30:04.820Z,25.08
2018-05-17T02:35:07.616Z,29.35
2018-05-17T02:40:10.991Z,29.50
2018-05-17T02:45:13.756Z,28.90
2018-05-17T02:50:16.282Z,29.50
2018-05-17T02:55:19.524Z,29.70
2018-05-17T03:00:22.727Z,30.55
2018-05-17T03:05:26.722Z,31.00
2018-05-17T03:10:29.566Z,29.95
2018-05-17T03:15:33.337Z,28.85
2018-05-17T03:20:36.394Z,28.52
2018-05-17T03:25:41.479Z,28.75
2018-05-17T03:30:45.107Z,29.85
2018-05-17T03:35:49.271Z,26.97
2018-05-17T03:40:52.507Z,27.15
2018-05-17T03:45:57.242Z,31.37
2018-05-17T03:51:01.026Z,29.33
2018-05-17T03:56:04.834Z,26.77
2018-05-17T04:06:42.288Z,28.35
2018-05-17T04:11:45.164Z,28.47
2018-05-17T04:16:49.080Z,33.78
2018-05-17T04:21:52.469Z,26.65
2018-05-17T04:26:54.965Z,25.30
2018-05-17T04:31:57.468Z,27.85
2018-05-17T04:36:59.979Z,28.48
2018-05-17T04:42:03.281Z,25.33
2018-05-17T04:47:05.893Z,27.47
2018-05-17T04:52:08.881Z,25.85
2018-05-17T04:57:12.354Z,24.08
2018-05-17T05:02:14.892Z,24.90
2018-05-17T05:07:18.280Z,25.48
2018-05-17T05:12:20.856Z,30.05
2018-05-17T05:17:23.423Z,24.50
2018-05-17T05:22:25.980Z,25.17
2018-05-17T05:27:28.530Z,23.65
2018-05-17T05:32:31.091Z,23.02
2018-05-17T05:37:33.678Z,24.00
2018-05-17T05:42:37.075Z,25.63
2018-05-17T05:47:39.593Z,22.27
2018-05-17T05:52:42.859Z,18.98
2018-05-17T05:57:45.389Z,22.07
2018-05-17T06:02:48.695Z,18.62
2018-05-17T06:07:52.022Z,22.58
2018-05-17T06:12:54.530Z,21.30
2018-05-17T06:18:01.914Z,20.17
2018-05-17T06:40:00.115Z,20.12
2018-05-17T06:45:03.239Z,17.50
2018-05-17T06:50:09.842Z,17.35
2018-05-17T06:55:13.853Z,18.33
2018-05-17T07:00:17.542Z,19.35
2018-05-17T07:05:20.297Z,14.48
2018-05-17T07:10:23.914Z,18.52
2018-05-17T07:15:27.569Z,14.85
2018-05-17T07:20:30.953Z,15.33
2018-05-17T07:25:34.337Z,14.75
2018-05-17T07:30:36.930Z,15.85
2018-05-17T07:35:39.704Z,14.05
2018-05-17T07:40:42.481Z,13.93
2018-05-17T07:45:47.362Z,14.48
2018-05-17T07:50:51.683Z,12.90
2018-05-17T07:55:56.660Z,11.95
2018-05-17T08:00:59.313Z,8.90
2018-05-17T08:06:01.873Z,13.10
2018-05-17T08:11:04.410Z,13.20
2018-05-17T08:16:09.768Z,13.97
2018-05-17T08:21:14.063Z,12.32
2018-05-17T08:26:16.682Z,11.30
2018-05-17T08:31:19.312Z,12.75
2018-05-17T08:36:22.461Z,11.60
2018-05-17T08:41:25.113Z,12.00
2018-05-17T08:46:27.766Z,13.10
2018-05-17T08:51:30.438Z,11.30
2018-05-17T08:56:33.152Z,13.68
2018-05-17T09:01:38.329Z,12.70
2018-05-17T09:06:41.809Z,13.02
2018-05-17T09:11:44.708Z,15.27
2018-05-17T09:33:48.370Z,13.32
2018-05-17T09:38:51.910Z,13.25
2018-05-17T09:43:56.584Z,9.90
2018-05-17T09:48:59.270Z,13.52
2018-05-17T09:54:02.000Z,14.07
2018-05-17T09:59:04.690Z,10.07
2018-05-17T10:04:07.388Z,14.90
2018-05-17T10:09:11.259Z,12.85
2018-05-17T10:14:13.923Z,12.50
2018-05-17T10:19:16.663Z,14.25
2018-05-17T10:24:20.036Z,10.85
2018-05-17T10:29:22.709Z,13.70
2018-05-17T10:34:25.195Z,13.53
2018-05-17T10:39:27.757Z,12.73
2018-05-17T10:44:30.363Z,11.60
2018-05-17T10:49:33.861Z,12.10
2018-05-17T10:54:37.413Z,13.10
2018-05-17T11:05:18.897Z,18.12
2018-05-17T11:10:23.239Z,11.77
2018-05-17T11:15:25.834Z,12.53
2018-05-17T11:25:36.271Z,10.50
2018-05-17T11:30:39.718Z,12.00
2018-05-17T12:03:05.224Z,11.43
2018-05-17T12:08:12.153Z,13.02
2018-05-17T12:13:15.214Z,11.48
2018-05-17T12:18:19.134Z,11.85
2018-05-17T12:23:26.864Z,15.93
2018-05-17T12:28:35.397Z,15.35
2018-05-17T12:33:40.905Z,15.17
2018-05-17T12:38:47.459Z,13.70
2018-05-17T12:43:50.487Z,16.50
2018-05-17T12:54:23.114Z,15.40
2018-05-17T12:59:27.606Z,14.70
2018-05-17T13:04:30.388Z,13.98
2018-05-17T13:09:35.615Z,14.23
2018-05-17T13:14:41.418Z,14.47
2018-05-17T13:19:47.067Z,13.85
2018-05-17T13:24:51.387Z,12.90
2018-05-17T13:29:54.711Z,10.90
2018-05-17T13:34:58.893Z,11.47
2018-05-17T13:40:06.752Z,14.52
2018-05-17T13:45:09.263Z,13.62
2018-05-17T13:50:12.862Z,11.48
2018-05-17T13:55:15.348Z,16.50
2018-05-17T14:00:17.859Z,13.15
2018-05-17T14:05:20.353Z,11.77
2018-05-17T14:10:22.904Z,12.00
2018-05-17T14:15:25.347Z,12.13
2018-05-17T14:20:27.874Z,12.00
2018-05-17T14:25:30.344Z,13.40
2018-05-17T14:30:32.815Z,10.68
2018-05-17T14:35:35.315Z,11.95
2018-05-17T14:40:38.599Z,12.70
2018-05-17T14:45:42.299Z,11.40
2018-05-17T14:50:44.830Z,11.45
2018-05-17T14:55:47.348Z,12.13
2018-05-17T15:00:50.769Z,11.00
2018-05-17T15:05:53.261Z,13.52
2018-05-17T15:10:55.763Z,14.30
2018-05-17T15:15:58.260Z,12.85
2018-05-17T15:21:01.499Z,13.97
2018-05-17T15:26:03.989Z,11.63
2018-05-17T15:31:06.893Z,11.63
2018-05-17T15:36:09.403Z,9.50
2018-05-17T15:41:12.624Z,10.53
2018-05-17T15:46:15.870Z,9.75
2018-05-17T15:51:18.369Z,13.10
2018-05-17T15:56:22.423Z,13.00
2018-05-17T16:01:27.636Z,14.27
2018-05-17T16:06:30.930Z,11.00
2018-05-17T16:11:34.420Z,12.20
2018-05-17T16:16:39.104Z,15.02
2018-05-17T16:21:41.627Z,11.73
2018-05-17T16:26:44.896Z,16.12
2018-05-17T16:31:48.150Z,12.75
2018-05-17T16:36:50.651Z,11.30
2018-05-17T16:41:53.151Z,9.57
2018-05-17T16:46:55.660Z,13.88
2018-05-17T16:51:58.162Z,12.70
2018-05-17T16:57:00.697Z,12.05
2018-05-17T17:02:03.238Z,10.63
2018-05-17T17:07:05.758Z,12.03
2018-05-17T17:12:08.287Z,13.10
2018-05-17T17:17:10.843Z,11.15
2018-05-17T17:22:13.373Z,11.68
2018-05-17T17:27:15.879Z,11.02
2018-05-17T17:32:18.440Z,16.20
2018-05-17T17:37:22.400Z,13.13
2018-05-17T17:42:26.399Z,13.40
2018-05-17T17:47:29.989Z,13.83
2018-05-17T17:52:33.236Z,14.87
2018-05-17T17:57:36.544Z,12.90
2018-05-17T18:02:40.953Z,12.53
2018-05-17T18:07:44.263Z,14.40
2018-05-17T18:12:47.267Z,19.05
2018-05-17T18:17:49.795Z,16.75
2018-05-17T18:22:53.192Z,12.75
2018-05-17T18:27:56.283Z,11.45
2018-05-17T18:33:00.450Z,12.57
2018-05-17T18:38:03.736Z,12.17
2018-05-17T18:43:07.245Z,14.90
2018-05-17T18:48:09.790Z,10.85
2018-05-17T18:53:12.398Z,10.27
2018-05-17T18:58:15.036Z,11.95
2018-05-17T19:03:17.548Z,11.48
2018-05-17T19:08:20.815Z,15.73
2018-05-17T19:13:24.515Z,11.13
2018-05-17T19:18:28.074Z,12.88
2018-05-17T19:23:30.563Z,17.67
2018-05-17T19:28:33.948Z,11.60
2018-05-17T19:33:36.613Z,15.68
2018-05-17T19:38:39.186Z,13.48
2018-05-17T19:43:42.468Z,10.82
2018-05-17T19:48:44.993Z,11.15
2018-05-17T19:53:48.281Z,13.40
2018-05-17T19:58:50.787Z,12.27
2018-05-17T20:03:54.088Z,14.40
2018-05-17T20:08:56.609Z,12.53
2018-05-17T20:13:59.151Z,9.55
2018-05-17T20:19:01.670Z,11.00
2018-05-17T20:24:04.190Z,14.18
2018-05-17T20:29:06.796Z,11.27
2018-05-17T20:34:09.758Z,11.80
2018-05-17T20:39:12.375Z,11.55
2018-05-17T20:44:16.628Z,16.10
2018-05-17T20:49:19.272Z,12.50
2018-05-17T20:54:22.629Z,16.45
2018-05-17T20:59:29.217Z,14.13
2018-05-17T21:04:31.980Z,15.18
2018-05-17T21:09:36.396Z,12.70
2018-05-17T21:14:40.167Z,12.30
2018-05-17T21:19:44.899Z,12.75
2018-05-17T21:24:48.932Z,16.20
2018-05-17T21:29:53.229Z,11.05
2018-05-17T21:34:55.765Z,14.30
2018-05-17T21:39:59.044Z,13.93
2018-05-17T21:45:01.587Z,14.97
2018-05-17T21:50:05.512Z,15.20
2018-05-17T21:55:08.024Z,12.18
2018-05-17T22:00:10.823Z,14.80
2018-05-17T22:05:13.976Z,10.65
2018-05-17T22:10:22.148Z,14.60
2018-05-17T22:15:25.577Z,18.02
2018-05-17T22:20:29.108Z,17.15
2018-05-17T22:25:32.773Z,12.80
2018-05-17T22:30:35.332Z,16.50
2018-05-17T22:35:41.701Z,13.20
2018-05-17T22:40:44.274Z,13.18
2018-05-17T22:45:46.782Z,13.20
2018-05-17T22:50:56.653Z,16.77
2018-05-17T22:55:59.246Z,15.20
2018-05-17T23:01:02.550Z,14.80
2018-05-17T23:06:06.249Z,13.27
2018-05-17T23:11:09.555Z,14.45
2018-05-17T23:16:13.047Z,12.05
2018-05-17T23:21:16.493Z,14.63
2018-05-17T23:26:23.640Z,14.00
2018-05-17T23:31:27.836Z,15.15
2018-05-17T23:36:39.223Z,11.77
2018-05-17T23:41:45.736Z,14.67
2018-05-17T23:46:48.265Z,14.27
2018-05-17T23:51:50.821Z,16.23
2018-05-17T23:56:53.336Z,13.83
